TimeEST,TemperatureF,Dew PointF,Humidity,Sea Level PressureIn,VisibilityMPH,Wind Direction,Wind SpeedMPH,Gust SpeedMPH,PrecipitationIn,Events,Conditions,WindDirDegrees,DateUTC
12:53 AM,28.9,16.0,58,30.32,10.0,NW,8.1,16.1,N/A,,Clear,320,2013-11-13 05:53:00
1:53 AM,28.9,16.0,58,30.33,10.0,NW,8.1,-,N/A,,Clear,320,2013-11-13 06:53:00
2:53 AM,28.0,16.0,61,30.33,10.0,Calm,Calm,-,N/A,,Clear,0,2013-11-13 07:53:00
3:53 AM,28.0,16.0,61,30.33,10.0,NW,6.9,-,N/A,,Clear,320,2013-11-13 08:53:00
4:53 AM,26.1,16.0,66,30.35,10.0,NW,4.6,-,N/A,,Clear,320,2013-11-13 09:53:00
5:53 AM,26.1,16.0,66,30.35,10.0,NNW,5.8,-,N/A,,Clear,330,2013-11-13 10:53:00
6:53 AM,27.0,14.0,58,30.38,10.0,NNW,8.1,18.4,N/A,,Clear,330,2013-11-13 11:53:00
7:53 AM,28.0,12.0,51,30.40,10.0,North,6.9,16.1,N/A,,Clear,350,2013-11-13 12:53:00
8:53 AM,30.0,10.9,45,30.41,10.0,NNW,10.4,18.4,N/A,,Clear,340,2013-11-13 13:53:00
9:53 AM,32.0,10.0,40,30.41,10.0,NW,11.5,18.4,N/A,,Clear,320,2013-11-13 14:53:00
10:53 AM,33.1,10.0,38,30.40,10.0,NNW,6.9,18.4,N/A,,Clear,330,2013-11-13 15:53:00
11:53 AM,35.1,12.0,39,30.38,10.0,NNW,12.7,23.0,N/A,,Clear,330,2013-11-13 16:53:00
12:53 PM,37.0,8.1,30,30.37,10.0,NW,11.5,18.4,N/A,,Clear,320,2013-11-13 17:53:00
1:53 PM,37.9,8.1,29,30.35,10.0,NNW,10.4,17.3,N/A,,Clear,330,2013-11-13 18:53:00
2:53 PM,39.0,9.0,29,30.35,10.0,NW,10.4,-,N/A,,Clear,320,2013-11-13 19:53:00
3:53 PM,37.9,10.9,33,30.35,10.0,NW,8.1,-,N/A,,Clear,310,2013-11-13 20:53:00
4:53 PM,36.0,12.0,37,30.36,10.0,NW,4.6,-,N/A,,Clear,310,2013-11-13 21:53:00
5:53 PM,34.0,12.9,42,30.38,10.0,WNW,4.6,-,N/A,,Clear,290,2013-11-13 22:53:00
6:53 PM,30.9,15.1,52,30.37,10.0,Calm,Calm,-,N/A,,Clear,0,2013-11-13 23:53:00
7:53 PM,30.0,15.1,54,30.37,10.0,Calm,Calm,-,N/A,,Clear,0,2013-11-14 00:53:00
8:53 PM,30.9,15.1,52,30.37,10.0,Calm,Calm,-,N/A,,Clear,0,2013-11-14 01:53:00
9:53 PM,30.0,15.1,54,30.35,10.0,WSW,3.5,-,N/A,,Clear,240,2013-11-14 02:53:00
10:53 PM,30.0,16.0,56,30.32,10.0,SSW,4.6,-,N/A,,Clear,210,2013-11-14 03:53:00
11:53 PM,30.9,17.1,57,30.31,10.0,SW,3.5,-,N/A,,Clear,220,2013-11-14 04:53:00